sensor_id;sensor_type;location;lat;lon;timestamp;P1;durP1;ratioP1;P2;durP2;ratioP2
8260;SDS011;64115;50.170;8.242;2023-02-24T00:01:14;40.07;;;18.27;;
8260;SDS011;64115;50.170;8.242;2023-02-24T00:03:49;40.40;;;18.50;;
8260;SDS011;64115;50.170;8.242;2023-02-24T00:06:17;36.57;;;17.63;;
8260;SDS011;64115;50.170;8.242;2023-02-24T00:08:45;41.30;;;19.00;;
8260;SDS011;64115;50.170;8.242;2023-02-24T00:11:13;40.40;;;18.20;;
8260;SDS011;64115;50.170;8.242;2023-02-24T00:13:41;42.33;;;19.07;;
8260;SDS011;64115;50.170;8.242;2023-02-24T00:16:11;38.47;;;17.47;;
8260;SDS011;64115;50.170;8.242;2023-02-24T00:18:40;42.07;;;19.20;;
8260;SDS011;64115;50.170;8.242;2023-02-24T00:21:08;39.53;;;17.83;;
8260;SDS011;64115;50.170;8.242;2023-02-24T00:23:37;38.30;;;17.50;;
8260;SDS011;64115;50.170;8.242;2023-02-24T00:26:05;37.10;;;17.00;;
8260;SDS011;64115;50.170;8.242;2023-02-24T00:28:33;35.30;;;17.87;;
8260;SDS011;64115;50.170;8.242;2023-02-24T00:31:02;37.70;;;17.50;;
8260;SDS011;64115;50.170;8.242;2023-02-24T00:33:30;38.27;;;18.13;;
8260;SDS011;64115;50.170;8.242;2023-02-24T00:36:06;38.30;;;17.43;;
8260;SDS011;64115;50.170;8.242;2023-02-24T00:38:35;37.73;;;17.33;;
8260;SDS011;64115;50.170;8.242;2023-02-24T00:41:09;33.77;;;16.30;;
8260;SDS011;64115;50.170;8.242;2023-02-24T00:43:38;37.40;;;17.63;;
8260;SDS011;64115;50.170;8.242;2023-02-24T00:46:11;36.57;;;17.50;;
8260;SDS011;64115;50.170;8.242;2023-02-24T00:48:41;35.60;;;17.30;;
8260;SDS011;64115;50.170;8.242;2023-02-24T00:51:12;40.93;;;17.57;;
8260;SDS011;64115;50.170;8.242;2023-02-24T00:53:41;40.40;;;18.03;;
8260;SDS011;64115;50.170;8.242;2023-02-24T00:56:09;37.10;;;16.37;;
8260;SDS011;64115;50.170;8.242;2023-02-24T00:58:37;36.63;;;16.57;;
8260;SDS011;64115;50.170;8.242;2023-02-24T01:01:10;37.93;;;16.40;;
8260;SDS011;64115;50.170;8.242;2023-02-24T01:03:38;40.27;;;17.17;;
8260;SDS011;64115;50.170;8.242;2023-02-24T01:06:06;40.60;;;17.07;;
8260;SDS011;64115;50.170;8.242;2023-02-24T01:08:34;37.83;;;16.70;;
8260;SDS011;64115;50.170;8.242;2023-02-24T01:11:07;37.97;;;17.23;;
8260;SDS011;64115;50.170;8.242;2023-02-24T01:13:52;35.73;;;15.93;;
8260;SDS011;64115;50.170;8.242;2023-02-24T01:16:19;33.47;;;16.07;;
8260;SDS011;64115;50.170;8.242;2023-02-24T01:18:46;34.60;;;15.83;;
8260;SDS011;64115;50.170;8.242;2023-02-24T01:21:14;33.47;;;16.17;;
8260;SDS011;64115;50.170;8.242;2023-02-24T01:23:45;32.53;;;15.77;;
8260;SDS011;64115;50.170;8.242;2023-02-24T01:26:13;34.07;;;15.53;;
8260;SDS011;64115;50.170;8.242;2023-02-24T01:28:40;36.50;;;15.77;;
8260;SDS011;64115;50.170;8.242;2023-02-24T01:31:07;35.70;;;15.90;;
8260;SDS011;64115;50.170;8.242;2023-02-24T01:33:34;37.17;;;15.23;;
8260;SDS011;64115;50.170;8.242;2023-02-24T01:36:07;35.03;;;15.30;;
8260;SDS011;64115;50.170;8.242;2023-02-24T01:38:35;37.67;;;16.67;;
8260;SDS011;64115;50.170;8.242;2023-02-24T01:41:04;35.30;;;15.80;;
8260;SDS011;64115;50.170;8.242;2023-02-24T01:43:32;35.27;;;15.97;;
8260;SDS011;64115;50.170;8.242;2023-02-24T01:46:19;33.00;;;15.27;;
8260;SDS011;64115;50.170;8.242;2023-02-24T01:48:47;35.40;;;15.87;;
8260;SDS011;64115;50.170;8.242;2023-02-24T01:51:16;40.13;;;16.93;;
8260;SDS011;64115;50.170;8.242;2023-02-24T01:53:43;33.70;;;16.13;;
8260;SDS011;64115;50.170;8.242;2023-02-24T01:56:12;37.10;;;16.57;;
8260;SDS011;64115;50.170;8.242;2023-02-24T01:58:40;44.93;;;17.67;;
8260;SDS011;64115;50.170;8.242;2023-02-24T02:01:08;37.80;;;16.97;;
8260;SDS011;64115;50.170;8.242;2023-02-24T02:03:36;38.67;;;16.80;;
8260;SDS011;64115;50.170;8.242;2023-02-24T02:06:06;42.20;;;17.97;;
8260;SDS011;64115;50.170;8.242;2023-02-24T02:08:35;41.47;;;18.23;;
8260;SDS011;64115;50.170;8.242;2023-02-24T02:11:06;42.67;;;18.00;;
8260;SDS011;64115;50.170;8.242;2023-02-24T02:13:37;42.33;;;18.13;;
8260;SDS011;64115;50.170;8.242;2023-02-24T02:16:12;45.60;;;17.73;;
8260;SDS011;64115;50.170;8.242;2023-02-24T02:19:01;43.43;;;18.60;;
8260;SDS011;64115;50.170;8.242;2023-02-24T02:21:51;40.97;;;18.43;;
8260;SDS011;64115;50.170;8.242;2023-02-24T02:24:34;41.97;;;18.13;;
8260;SDS011;64115;50.170;8.242;2023-02-24T02:30:43;41.57;;;17.23;;
8260;SDS011;64115;50.170;8.242;2023-02-24T02:36:26;42.87;;;17.03;;
8260;SDS011;64115;50.170;8.242;2023-02-24T02:39:00;39.70;;;17.10;;
8260;SDS011;64115;50.170;8.242;2023-02-24T02:41:39;41.13;;;17.57;;
8260;SDS011;64115;50.170;8.242;2023-02-24T02:44:16;35.87;;;17.00;;
8260;SDS011;64115;50.170;8.242;2023-02-24T02:46:47;40.03;;;17.43;;
8260;SDS011;64115;50.170;8.242;2023-02-24T02:49:21;35.37;;;16.53;;
8260;SDS011;64115;50.170;8.242;2023-02-24T02:51:55;38.17;;;17.03;;
8260;SDS011;64115;50.170;8.242;2023-02-24T02:54:32;37.97;;;16.73;;
8260;SDS011;64115;50.170;8.242;2023-02-24T02:57:06;36.37;;;15.80;;
8260;SDS011;64115;50.170;8.242;2023-02-24T02:59:39;31.97;;;15.17;;
8260;SDS011;64115;50.170;8.242;2023-02-24T03:02:09;33.63;;;15.87;;
8260;SDS011;64115;50.170;8.242;2023-02-24T03:04:41;32.90;;;15.37;;
8260;SDS011;64115;50.170;8.242;2023-02-24T03:07:12;36.47;;;16.47;;
8260;SDS011;64115;50.170;8.242;2023-02-24T03:09:43;35.83;;;16.33;;
8260;SDS011;64115;50.170;8.242;2023-02-24T03:12:15;34.13;;;15.63;;
8260;SDS011;64115;50.170;8.242;2023-02-24T03:14:47;35.50;;;16.77;;
8260;SDS011;64115;50.170;8.242;2023-02-24T03:17:18;34.87;;;17.23;;
8260;SDS011;64115;50.170;8.242;2023-02-24T03:19:50;36.10;;;15.93;;
8260;SDS011;64115;50.170;8.242;2023-02-24T03:22:26;32.37;;;15.73;;
8260;SDS011;64115;50.170;8.242;2023-02-24T03:24:59;35.13;;;16.33;;
8260;SDS011;64115;50.170;8.242;2023-02-24T03:27:29;35.17;;;16.33;;
8260;SDS011;64115;50.170;8.242;2023-02-24T03:30:05;37.53;;;16.53;;
8260;SDS011;64115;50.170;8.242;2023-02-24T03:32:38;36.60;;;16.30;;
8260;SDS011;64115;50.170;8.242;2023-02-24T03:35:17;35.10;;;16.93;;
8260;SDS011;64115;50.170;8.242;2023-02-24T03:37:46;37.73;;;17.47;;
8260;SDS011;64115;50.170;8.242;2023-02-24T03:42:45;33.93;;;16.83;;
8260;SDS011;64115;50.170;8.242;2023-02-24T03:45:14;37.83;;;17.07;;
8260;SDS011;64115;50.170;8.242;2023-02-24T03:47:44;34.77;;;17.30;;
8260;SDS011;64115;50.170;8.242;2023-02-24T03:50:11;35.20;;;17.87;;
8260;SDS011;64115;50.170;8.242;2023-02-24T03:52:42;31.73;;;16.67;;
8260;SDS011;64115;50.170;8.242;2023-02-24T03:55:17;35.70;;;18.00;;
8260;SDS011;64115;50.170;8.242;2023-02-24T03:57:58;36.60;;;18.10;;
8260;SDS011;64115;50.170;8.242;2023-02-24T04:00:37;32.63;;;16.80;;
8260;SDS011;64115;50.170;8.242;2023-02-24T04:03:11;34.00;;;17.53;;
8260;SDS011;64115;50.170;8.242;2023-02-24T04:05:50;35.13;;;16.63;;
8260;SDS011;64115;50.170;8.242;2023-02-24T04:08:27;34.63;;;16.93;;
8260;SDS011;64115;50.170;8.242;2023-02-24T04:11:04;34.80;;;17.60;;
8260;SDS011;64115;50.170;8.242;2023-02-24T04:13:41;32.43;;;16.43;;
8260;SDS011;64115;50.170;8.242;2023-02-24T04:16:12;32.37;;;16.77;;
8260;SDS011;64115;50.170;8.242;2023-02-24T04:18:43;34.33;;;16.67;;
8260;SDS011;64115;50.170;8.242;2023-02-24T04:21:14;34.50;;;17.37;;
8260;SDS011;64115;50.170;8.242;2023-02-24T04:23:45;37.63;;;17.83;;
8260;SDS011;64115;50.170;8.242;2023-02-24T04:26:13;33.37;;;17.17;;
8260;SDS011;64115;50.170;8.242;2023-02-24T04:28:43;31.10;;;16.40;;
8260;SDS011;64115;50.170;8.242;2023-02-24T04:31:12;34.40;;;17.50;;
8260;SDS011;64115;50.170;8.242;2023-02-24T04:33:42;33.60;;;16.67;;
8260;SDS011;64115;50.170;8.242;2023-02-24T04:36:14;34.43;;;16.60;;
8260;SDS011;64115;50.170;8.242;2023-02-24T04:38:41;32.27;;;16.60;;
8260;SDS011;64115;50.170;8.242;2023-02-24T04:41:11;33.27;;;17.50;;
8260;SDS011;64115;50.170;8.242;2023-02-24T04:43:44;32.70;;;15.87;;
8260;SDS011;64115;50.170;8.242;2023-02-24T04:46:12;33.63;;;16.97;;
8260;SDS011;64115;50.170;8.242;2023-02-24T04:48:40;36.43;;;16.37;;
8260;SDS011;64115;50.170;8.242;2023-02-24T04:51:07;36.10;;;17.57;;
8260;SDS011;64115;50.170;8.242;2023-02-24T04:53:34;38.17;;;18.30;;
8260;SDS011;64115;50.170;8.242;2023-02-24T04:56:02;41.03;;;18.80;;
8260;SDS011;64115;50.170;8.242;2023-02-24T04:58:35;39.27;;;18.53;;
8260;SDS011;64115;50.170;8.242;2023-02-24T05:01:07;37.80;;;18.83;;
8260;SDS011;64115;50.170;8.242;2023-02-24T05:03:35;37.60;;;18.37;;
8260;SDS011;64115;50.170;8.242;2023-02-24T05:06:06;37.93;;;17.73;;
8260;SDS011;64115;50.170;8.242;2023-02-24T05:08:38;38.20;;;17.97;;
8260;SDS011;64115;50.170;8.242;2023-02-24T05:11:05;36.07;;;17.83;;
8260;SDS011;64115;50.170;8.242;2023-02-24T05:13:33;39.13;;;18.40;;
8260;SDS011;64115;50.170;8.242;2023-02-24T05:16:03;38.17;;;18.53;;
8260;SDS011;64115;50.170;8.242;2023-02-24T05:18:31;39.07;;;17.80;;
8260;SDS011;64115;50.170;8.242;2023-02-24T05:21:04;40.57;;;18.33;;
8260;SDS011;64115;50.170;8.242;2023-02-24T05:23:51;36.67;;;17.40;;
8260;SDS011;64115;50.170;8.242;2023-02-24T05:26:20;37.57;;;17.73;;
8260;SDS011;64115;50.170;8.242;2023-02-24T05:28:51;36.07;;;17.87;;
8260;SDS011;64115;50.170;8.242;2023-02-24T05:31:21;39.13;;;19.63;;
8260;SDS011;64115;50.170;8.242;2023-02-24T05:33:50;37.13;;;19.03;;
8260;SDS011;64115;50.170;8.242;2023-02-24T05:36:20;36.00;;;18.70;;
8260;SDS011;64115;50.170;8.242;2023-02-24T05:38:49;36.57;;;18.33;;
8260;SDS011;64115;50.170;8.242;2023-02-24T05:41:20;41.53;;;19.17;;
8260;SDS011;64115;50.170;8.242;2023-02-24T05:43:48;37.57;;;18.80;;
8260;SDS011;64115;50.170;8.242;2023-02-24T05:46:20;39.70;;;19.37;;
8260;SDS011;64115;50.170;8.242;2023-02-24T05:48:52;37.40;;;19.77;;
8260;SDS011;64115;50.170;8.242;2023-02-24T05:51:22;43.80;;;20.20;;
8260;SDS011;64115;50.170;8.242;2023-02-24T05:53:49;42.27;;;20.23;;
8260;SDS011;64115;50.170;8.242;2023-02-24T05:56:20;41.67;;;21.37;;
8260;SDS011;64115;50.170;8.242;2023-02-24T05:58:47;42.50;;;19.77;;
8260;SDS011;64115;50.170;8.242;2023-02-24T06:01:27;45.20;;;21.53;;
8260;SDS011;64115;50.170;8.242;2023-02-24T06:03:55;50.83;;;21.70;;
8260;SDS011;64115;50.170;8.242;2023-02-24T06:06:30;41.40;;;20.20;;
8260;SDS011;64115;50.170;8.242;2023-02-24T06:08:59;45.27;;;21.17;;
8260;SDS011;64115;50.170;8.242;2023-02-24T06:11:31;45.17;;;21.17;;
8260;SDS011;64115;50.170;8.242;2023-02-24T06:13:58;42.03;;;21.17;;
8260;SDS011;64115;50.170;8.242;2023-02-24T06:16:27;42.73;;;21.60;;
8260;SDS011;64115;50.170;8.242;2023-02-24T06:18:55;44.07;;;21.83;;
8260;SDS011;64115;50.170;8.242;2023-02-24T06:21:22;41.90;;;20.87;;
8260;SDS011;64115;50.170;8.242;2023-02-24T06:23:53;44.80;;;20.63;;
8260;SDS011;64115;50.170;8.242;2023-02-24T06:26:22;45.30;;;21.20;;
8260;SDS011;64115;50.170;8.242;2023-02-24T06:28:54;44.97;;;21.57;;
8260;SDS011;64115;50.170;8.242;2023-02-24T06:31:22;45.50;;;21.30;;
8260;SDS011;64115;50.170;8.242;2023-02-24T06:33:50;44.10;;;21.80;;
8260;SDS011;64115;50.170;8.242;2023-02-24T06:36:18;48.97;;;21.50;;
8260;SDS011;64115;50.170;8.242;2023-02-24T06:38:45;48.50;;;22.03;;
8260;SDS011;64115;50.170;8.242;2023-02-24T06:41:13;48.83;;;22.20;;
8260;SDS011;64115;50.170;8.242;2023-02-24T06:43:41;48.03;;;21.13;;
8260;SDS011;64115;50.170;8.242;2023-02-24T06:46:09;48.97;;;21.97;;
8260;SDS011;64115;50.170;8.242;2023-02-24T06:48:47;44.33;;;21.80;;
8260;SDS011;64115;50.170;8.242;2023-02-24T06:51:15;47.53;;;22.53;;
8260;SDS011;64115;50.170;8.242;2023-02-24T06:53:43;47.13;;;21.63;;
8260;SDS011;64115;50.170;8.242;2023-02-24T06:56:10;50.80;;;22.70;;
8260;SDS011;64115;50.170;8.242;2023-02-24T06:58:40;42.23;;;20.57;;
8260;SDS011;64115;50.170;8.242;2023-02-24T07:01:09;43.40;;;20.23;;
8260;SDS011;64115;50.170;8.242;2023-02-24T07:03:37;42.50;;;20.67;;
8260;SDS011;64115;50.170;8.242;2023-02-24T07:06:11;38.83;;;19.07;;
8260;SDS011;64115;50.170;8.242;2023-02-24T07:08:50;41.90;;;19.87;;
8260;SDS011;64115;50.170;8.242;2023-02-24T07:11:18;43.77;;;19.73;;
8260;SDS011;64115;50.170;8.242;2023-02-24T07:13:46;42.73;;;19.90;;
8260;SDS011;64115;50.170;8.242;2023-02-24T07:16:14;42.07;;;19.90;;
8260;SDS011;64115;50.170;8.242;2023-02-24T07:18:42;40.33;;;20.17;;
8260;SDS011;64115;50.170;8.242;2023-02-24T07:21:12;35.87;;;18.73;;
8260;SDS011;64115;50.170;8.242;2023-02-24T07:23:42;38.80;;;18.50;;
8260;SDS011;64115;50.170;8.242;2023-02-24T07:26:15;39.17;;;19.27;;
8260;SDS011;64115;50.170;8.242;2023-02-24T07:28:44;42.73;;;20.07;;
8260;SDS011;64115;50.170;8.242;2023-02-24T07:31:12;38.03;;;18.93;;
8260;SDS011;64115;50.170;8.242;2023-02-24T07:33:41;35.47;;;18.67;;
8260;SDS011;64115;50.170;8.242;2023-02-24T07:36:10;36.93;;;18.83;;
8260;SDS011;64115;50.170;8.242;2023-02-24T07:38:40;34.80;;;18.67;;
8260;SDS011;64115;50.170;8.242;2023-02-24T07:41:08;36.10;;;18.17;;
8260;SDS011;64115;50.170;8.242;2023-02-24T07:43:38;34.60;;;18.63;;
8260;SDS011;64115;50.170;8.242;2023-02-24T07:46:06;32.67;;;17.23;;
8260;SDS011;64115;50.170;8.242;2023-02-24T07:48:35;34.27;;;17.40;;
8260;SDS011;64115;50.170;8.242;2023-02-24T07:51:05;28.57;;;16.10;;
8260;SDS011;64115;50.170;8.242;2023-02-24T07:53:32;29.63;;;16.03;;
8260;SDS011;64115;50.170;8.242;2023-02-24T07:55:59;31.50;;;16.40;;
8260;SDS011;64115;50.170;8.242;2023-02-24T07:58:34;31.40;;;16.03;;
8260;SDS011;64115;50.170;8.242;2023-02-24T08:01:03;33.30;;;17.13;;
8260;SDS011;64115;50.170;8.242;2023-02-24T08:03:33;30.43;;;16.53;;
8260;SDS011;64115;50.170;8.242;2023-02-24T08:06:05;29.97;;;16.60;;
8260;SDS011;64115;50.170;8.242;2023-02-24T08:08:39;31.10;;;15.97;;
8260;SDS011;64115;50.170;8.242;2023-02-24T08:11:41;30.03;;;15.53;;
8260;SDS011;64115;50.170;8.242;2023-02-24T08:14:10;28.53;;;14.80;;
8260;SDS011;64115;50.170;8.242;2023-02-24T08:16:41;28.93;;;15.23;;
8260;SDS011;64115;50.170;8.242;2023-02-24T08:19:08;27.70;;;14.57;;
8260;SDS011;64115;50.170;8.242;2023-02-24T08:21:37;28.10;;;14.63;;
8260;SDS011;64115;50.170;8.242;2023-02-24T08:24:06;27.70;;;14.60;;
8260;SDS011;64115;50.170;8.242;2023-02-24T08:26:42;28.70;;;14.40;;
8260;SDS011;64115;50.170;8.242;2023-02-24T08:29:10;25.63;;;13.90;;
8260;SDS011;64115;50.170;8.242;2023-02-24T08:31:37;25.53;;;14.77;;
8260;SDS011;64115;50.170;8.242;2023-02-24T08:34:06;26.43;;;14.27;;
8260;SDS011;64115;50.170;8.242;2023-02-24T08:36:33;22.77;;;14.00;;
8260;SDS011;64115;50.170;8.242;2023-02-24T08:39:01;26.13;;;14.13;;
8260;SDS011;64115;50.170;8.242;2023-02-24T08:41:29;23.70;;;13.57;;
8260;SDS011;64115;50.170;8.242;2023-02-24T08:44:12;23.10;;;13.53;;
8260;SDS011;64115;50.170;8.242;2023-02-24T08:46:42;27.20;;;13.80;;
8260;SDS011;64115;50.170;8.242;2023-02-24T08:49:11;22.07;;;13.03;;
8260;SDS011;64115;50.170;8.242;2023-02-24T08:51:41;22.80;;;12.97;;
8260;SDS011;64115;50.170;8.242;2023-02-24T08:54:10;24.53;;;12.73;;
8260;SDS011;64115;50.170;8.242;2023-02-24T08:56:40;23.53;;;12.67;;
8260;SDS011;64115;50.170;8.242;2023-02-24T08:59:10;24.97;;;13.23;;
8260;SDS011;64115;50.170;8.242;2023-02-24T09:01:54;23.73;;;13.17;;
8260;SDS011;64115;50.170;8.242;2023-02-24T09:04:43;23.07;;;13.27;;
8260;SDS011;64115;50.170;8.242;2023-02-24T09:07:14;23.60;;;12.50;;
8260;SDS011;64115;50.170;8.242;2023-02-24T09:09:43;22.57;;;12.80;;
8260;SDS011;64115;50.170;8.242;2023-02-24T09:12:11;21.83;;;12.90;;
8260;SDS011;64115;50.170;8.242;2023-02-24T09:14:46;21.80;;;13.17;;
8260;SDS011;64115;50.170;8.242;2023-02-24T09:17:14;19.47;;;12.17;;
8260;SDS011;64115;50.170;8.242;2023-02-24T09:19:47;22.00;;;12.33;;
8260;SDS011;64115;50.170;8.242;2023-02-24T09:22:32;22.57;;;12.47;;
8260;SDS011;64115;50.170;8.242;2023-02-24T09:25:21;20.83;;;12.77;;
8260;SDS011;64115;50.170;8.242;2023-02-24T09:27:50;17.50;;;11.63;;
8260;SDS011;64115;50.170;8.242;2023-02-24T09:30:20;23.23;;;12.90;;
8260;SDS011;64115;50.170;8.242;2023-02-24T09:33:09;21.17;;;12.20;;
8260;SDS011;64115;50.170;8.242;2023-02-24T09:35:55;22.53;;;12.67;;
8260;SDS011;64115;50.170;8.242;2023-02-24T09:38:38;19.63;;;12.40;;
8260;SDS011;64115;50.170;8.242;2023-02-24T09:41:29;21.97;;;11.47;;
8260;SDS011;64115;50.170;8.242;2023-02-24T09:44:18;20.17;;;11.57;;
8260;SDS011;64115;50.170;8.242;2023-02-24T09:46:50;22.63;;;12.27;;
8260;SDS011;64115;50.170;8.242;2023-02-24T09:49:22;19.40;;;11.70;;
8260;SDS011;64115;50.170;8.242;2023-02-24T09:52:06;20.37;;;11.70;;
8260;SDS011;64115;50.170;8.242;2023-02-24T09:54:41;19.03;;;11.63;;
8260;SDS011;64115;50.170;8.242;2023-02-24T09:57:41;16.03;;;10.27;;
8260;SDS011;64115;50.170;8.242;2023-02-24T10:00:30;17.57;;;11.03;;
8260;SDS011;64115;50.170;8.242;2023-02-24T10:03:09;16.53;;;11.07;;
8260;SDS011;64115;50.170;8.242;2023-02-24T10:05:46;21.13;;;12.00;;
8260;SDS011;64115;50.170;8.242;2023-02-24T10:08:26;18.67;;;11.13;;
8260;SDS011;64115;50.170;8.242;2023-02-24T10:10:59;19.23;;;11.70;;
8260;SDS011;64115;50.170;8.242;2023-02-24T10:13:34;19.77;;;11.47;;
8260;SDS011;64115;50.170;8.242;2023-02-24T10:16:04;20.90;;;12.40;;
8260;SDS011;64115;50.170;8.242;2023-02-24T10:18:38;19.10;;;12.00;;
8260;SDS011;64115;50.170;8.242;2023-02-24T10:21:13;20.57;;;12.37;;
8260;SDS011;64115;50.170;8.242;2023-02-24T10:23:58;18.30;;;11.93;;
8260;SDS011;64115;50.170;8.242;2023-02-24T10:26:34;14.90;;;10.43;;
8260;SDS011;64115;50.170;8.242;2023-02-24T10:29:13;16.60;;;10.27;;
8260;SDS011;64115;50.170;8.242;2023-02-24T10:31:54;15.53;;;10.03;;
8260;SDS011;64115;50.170;8.242;2023-02-24T10:34:31;13.90;;;9.57;;
8260;SDS011;64115;50.170;8.242;2023-02-24T10:36:58;13.57;;;9.03;;
8260;SDS011;64115;50.170;8.242;2023-02-24T10:39:32;17.40;;;9.93;;
8260;SDS011;64115;50.170;8.242;2023-02-24T10:41:59;13.13;;;9.00;;
8260;SDS011;64115;50.170;8.242;2023-02-24T10:44:41;14.10;;;9.20;;
8260;SDS011;64115;50.170;8.242;2023-02-24T10:47:16;14.47;;;9.40;;
8260;SDS011;64115;50.170;8.242;2023-02-24T10:49:45;14.33;;;9.43;;
8260;SDS011;64115;50.170;8.242;2023-02-24T10:52:25;15.67;;;9.57;;
8260;SDS011;64115;50.170;8.242;2023-02-24T10:55:22;15.43;;;9.77;;
8260;SDS011;64115;50.170;8.242;2023-02-24T10:58:03;15.23;;;8.90;;
8260;SDS011;64115;50.170;8.242;2023-02-24T11:00:38;16.37;;;9.77;;
8260;SDS011;64115;50.170;8.242;2023-02-24T11:03:24;15.30;;;9.47;;
8260;SDS011;64115;50.170;8.242;2023-02-24T11:06:00;15.00;;;9.03;;
8260;SDS011;64115;50.170;8.242;2023-02-24T11:08:55;14.57;;;9.33;;
8260;SDS011;64115;50.170;8.242;2023-02-24T11:11:44;17.63;;;9.73;;
8260;SDS011;64115;50.170;8.242;2023-02-24T11:14:30;14.57;;;9.23;;
8260;SDS011;64115;50.170;8.242;2023-02-24T11:17:18;15.93;;;10.23;;
8260;SDS011;64115;50.170;8.242;2023-02-24T11:19:54;13.00;;;9.07;;
8260;SDS011;64115;50.170;8.242;2023-02-24T11:22:26;12.83;;;9.20;;
8260;SDS011;64115;50.170;8.242;2023-02-24T11:24:58;17.03;;;9.70;;
8260;SDS011;64115;50.170;8.242;2023-02-24T11:27:32;17.40;;;10.23;;
8260;SDS011;64115;50.170;8.242;2023-02-24T11:30:02;15.93;;;9.30;;
8260;SDS011;64115;50.170;8.242;2023-02-24T11:32:42;18.27;;;10.30;;
8260;SDS011;64115;50.170;8.242;2023-02-24T11:35:24;13.50;;;9.10;;
8260;SDS011;64115;50.170;8.242;2023-02-24T11:37:59;16.03;;;9.57;;
8260;SDS011;64115;50.170;8.242;2023-02-24T11:40:32;13.60;;;9.20;;
8260;SDS011;64115;50.170;8.242;2023-02-24T11:43:08;15.40;;;9.37;;
8260;SDS011;64115;50.170;8.242;2023-02-24T11:45:38;16.00;;;9.73;;
8260;SDS011;64115;50.170;8.242;2023-02-24T11:48:11;13.23;;;8.83;;
8260;SDS011;64115;50.170;8.242;2023-02-24T11:50:44;12.17;;;8.50;;
8260;SDS011;64115;50.170;8.242;2023-02-24T11:53:17;13.27;;;8.23;;
8260;SDS011;64115;50.170;8.242;2023-02-24T11:55:52;12.63;;;8.53;;
8260;SDS011;64115;50.170;8.242;2023-02-24T11:58:27;11.93;;;8.30;;
8260;SDS011;64115;50.170;8.242;2023-02-24T12:01:00;14.87;;;8.60;;
8260;SDS011;64115;50.170;8.242;2023-02-24T12:03:34;13.83;;;9.03;;
8260;SDS011;64115;50.170;8.242;2023-02-24T12:06:10;13.23;;;8.23;;
8260;SDS011;64115;50.170;8.242;2023-02-24T12:08:42;15.53;;;8.50;;
8260;SDS011;64115;50.170;8.242;2023-02-24T12:11:15;14.00;;;8.67;;
8260;SDS011;64115;50.170;8.242;2023-02-24T12:13:51;13.70;;;8.27;;
8260;SDS011;64115;50.170;8.242;2023-02-24T12:16:27;13.20;;;8.00;;
8260;SDS011;64115;50.170;8.242;2023-02-24T12:18:58;12.73;;;8.03;;
8260;SDS011;64115;50.170;8.242;2023-02-24T12:21:30;14.67;;;9.07;;
8260;SDS011;64115;50.170;8.242;2023-02-24T12:24:03;12.60;;;9.03;;
8260;SDS011;64115;50.170;8.242;2023-02-24T12:26:32;12.73;;;8.77;;
8260;SDS011;64115;50.170;8.242;2023-02-24T12:32:08;11.70;;;8.50;;
8260;SDS011;64115;50.170;8.242;2023-02-24T12:34:48;13.40;;;8.40;;
8260;SDS011;64115;50.170;8.242;2023-02-24T12:40:38;15.37;;;9.10;;
8260;SDS011;64115;50.170;8.242;2023-02-24T12:43:19;15.10;;;8.67;;
8260;SDS011;64115;50.170;8.242;2023-02-24T12:45:57;17.77;;;8.77;;
8260;SDS011;64115;50.170;8.242;2023-02-24T12:48:40;14.00;;;9.00;;
8260;SDS011;64115;50.170;8.242;2023-02-24T12:51:37;14.13;;;8.07;;
8260;SDS011;64115;50.170;8.242;2023-02-24T12:54:15;13.57;;;8.20;;
8260;SDS011;64115;50.170;8.242;2023-02-24T12:56:50;11.80;;;8.40;;
8260;SDS011;64115;50.170;8.242;2023-02-24T12:59:24;13.83;;;8.10;;
8260;SDS011;64115;50.170;8.242;2023-02-24T13:01:57;13.53;;;7.67;;
8260;SDS011;64115;50.170;8.242;2023-02-24T13:04:32;16.33;;;9.00;;
8260;SDS011;64115;50.170;8.242;2023-02-24T13:07:10;15.27;;;8.53;;
8260;SDS011;64115;50.170;8.242;2023-02-24T13:09:54;11.30;;;7.90;;
8260;SDS011;64115;50.170;8.242;2023-02-24T13:12:34;14.10;;;8.67;;
8260;SDS011;64115;50.170;8.242;2023-02-24T13:15:06;11.17;;;7.90;;
8260;SDS011;64115;50.170;8.242;2023-02-24T13:17:46;13.87;;;8.27;;
8260;SDS011;64115;50.170;8.242;2023-02-24T13:20:24;14.10;;;8.53;;
8260;SDS011;64115;50.170;8.242;2023-02-24T13:22:54;13.77;;;8.10;;
8260;SDS011;64115;50.170;8.242;2023-02-24T13:25:24;15.90;;;8.33;;
8260;SDS011;64115;50.170;8.242;2023-02-24T13:27:56;13.30;;;7.77;;
8260;SDS011;64115;50.170;8.242;2023-02-24T13:30:31;14.77;;;8.10;;
8260;SDS011;64115;50.170;8.242;2023-02-24T13:33:19;10.27;;;7.30;;
8260;SDS011;64115;50.170;8.242;2023-02-24T13:35:51;11.30;;;7.00;;
8260;SDS011;64115;50.170;8.242;2023-02-24T13:38:34;11.60;;;7.07;;
8260;SDS011;64115;50.170;8.242;2023-02-24T13:43:59;10.00;;;6.40;;
8260;SDS011;64115;50.170;8.242;2023-02-24T13:46:29;11.90;;;7.07;;
8260;SDS011;64115;50.170;8.242;2023-02-24T13:49:28;8.47;;;5.93;;
8260;SDS011;64115;50.170;8.242;2023-02-24T13:52:01;8.67;;;6.17;;
8260;SDS011;64115;50.170;8.242;2023-02-24T13:54:48;8.67;;;5.80;;
8260;SDS011;64115;50.170;8.242;2023-02-24T13:57:36;10.03;;;6.67;;
8260;SDS011;64115;50.170;8.242;2023-02-24T14:00:15;12.03;;;6.30;;
8260;SDS011;64115;50.170;8.242;2023-02-24T14:02:52;9.17;;;6.03;;
8260;SDS011;64115;50.170;8.242;2023-02-24T14:05:22;8.73;;;5.70;;
8260;SDS011;64115;50.170;8.242;2023-02-24T14:07:52;9.13;;;5.80;;
8260;SDS011;64115;50.170;8.242;2023-02-24T14:10:21;9.07;;;5.50;;
8260;SDS011;64115;50.170;8.242;2023-02-24T14:12:53;9.53;;;6.13;;
8260;SDS011;64115;50.170;8.242;2023-02-24T14:15:28;7.17;;;5.60;;
8260;SDS011;64115;50.170;8.242;2023-02-24T14:17:56;10.40;;;5.83;;
8260;SDS011;64115;50.170;8.242;2023-02-24T14:20:29;8.57;;;5.70;;
8260;SDS011;64115;50.170;8.242;2023-02-24T14:22:58;8.57;;;5.97;;
8260;SDS011;64115;50.170;8.242;2023-02-24T14:25:27;9.43;;;5.50;;
8260;SDS011;64115;50.170;8.242;2023-02-24T14:27:56;7.67;;;5.43;;
8260;SDS011;64115;50.170;8.242;2023-02-24T14:30:26;7.07;;;5.20;;
8260;SDS011;64115;50.170;8.242;2023-02-24T14:32:58;9.20;;;5.13;;
8260;SDS011;64115;50.170;8.242;2023-02-24T14:35:30;6.67;;;4.90;;
8260;SDS011;64115;50.170;8.242;2023-02-24T14:37:58;7.43;;;4.87;;
8260;SDS011;64115;50.170;8.242;2023-02-24T14:40:26;6.70;;;4.80;;
8260;SDS011;64115;50.170;8.242;2023-02-24T14:42:54;7.83;;;5.30;;
8260;SDS011;64115;50.170;8.242;2023-02-24T14:45:22;6.77;;;4.67;;
8260;SDS011;64115;50.170;8.242;2023-02-24T14:47:51;8.67;;;4.63;;
8260;SDS011;64115;50.170;8.242;2023-02-24T14:50:19;9.70;;;4.80;;
8260;SDS011;64115;50.170;8.242;2023-02-24T14:52:52;7.53;;;4.60;;
8260;SDS011;64115;50.170;8.242;2023-02-24T14:55:23;5.70;;;4.90;;
8260;SDS011;64115;50.170;8.242;2023-02-24T14:57:54;6.90;;;4.90;;
8260;SDS011;64115;50.170;8.242;2023-02-24T15:00:27;7.07;;;4.50;;
8260;SDS011;64115;50.170;8.242;2023-02-24T15:03:00;7.67;;;4.70;;
8260;SDS011;64115;50.170;8.242;2023-02-24T15:05:31;8.17;;;5.00;;
8260;SDS011;64115;50.170;8.242;2023-02-24T15:08:00;7.93;;;4.77;;
8260;SDS011;64115;50.170;8.242;2023-02-24T15:10:28;6.93;;;4.83;;
8260;SDS011;64115;50.170;8.242;2023-02-24T15:12:56;7.40;;;5.50;;
8260;SDS011;64115;50.170;8.242;2023-02-24T15:15:26;7.20;;;5.13;;
8260;SDS011;64115;50.170;8.242;2023-02-24T15:17:55;10.30;;;5.00;;
8260;SDS011;64115;50.170;8.242;2023-02-24T15:20:28;7.87;;;5.50;;
8260;SDS011;64115;50.170;8.242;2023-02-24T15:22:58;6.97;;;4.90;;
8260;SDS011;64115;50.170;8.242;2023-02-24T15:25:27;8.50;;;5.17;;
8260;SDS011;64115;50.170;8.242;2023-02-24T15:27:56;8.43;;;5.17;;
8260;SDS011;64115;50.170;8.242;2023-02-24T15:30:29;10.97;;;5.47;;
8260;SDS011;64115;50.170;8.242;2023-02-24T15:33:02;6.13;;;4.50;;